Air Resources Laboratory banner image
Air Resources Laboratory web site National Oceanic and Atmospheric Administration (NOAA)

co metar


KAFF 151158Z AUTO 03003KT 10SM CLR 00/M09 A3016 RMK AO2 SLP217 T00021095 10017
 21018 57007=
KAKO 151153Z AUTO 27010KT 10SM CLR 00/M06 A3008 RMK AO2 SLP192 T00001061 10033
 21006 55003=
KALS 151152Z AUTO 00000KT 10SM CLR M14/M16 A3032 RMK AO2 SLP312 7//// I6000
 T11441161 11078 21144 56007=
KAPA 151153Z 17003KT 10SM CLR 04/M08 A3012 RMK AO2 SLP192 T00391083 10056 20011
 56008=
KASE 151153Z AUTO 21004KT 10SM CLR 04/M11 A3034 RMK AO2 SLP196 T00391106 10089
 21028 58007=
KBJC 151153Z AUTO 28016KT 10SM CLR 07/M08 A3011 RMK AO2=
KBKF 151158Z 18008KT 10SM FEW220 02/M08 A3012 RMK AO2A SLP179 T00221080 10037
 20018 57009=
KCAG 151153Z AUTO 00000KT 10SM CLR M10/M12 A3033 RMK AO2 SLP315 T11001117 11072
 21106 58005=
KCEZ 151153Z AUTO 04004KT 10SM CLR M11/M15 A3033 RMK AO2 SLP286 T11061150 11067
 21111 56007=
KCOS 151154Z 33008KT 10SM CLR 06/M11 A3015 RMK AO2 SLP192 T00561106 10078 20022
 57004 $=
KDEN 151153Z 21011KT 10SM CLR 06/M08 A3010 RMK AO2 SLP162 T00561083 10061 20039
 56008=
KDRO 151153Z AUTO 04004KT 10SM CLR M07/M09 A3031 RMK AO2 SLP290 T10671089 11039
 21089 56008=
KEEO 151153Z AUTO 00000KT 10SM CLR M08/M11 A3033 RMK AO2 SLP286 T10831111 11039
 21083 58007=
KEGE 151156Z AUTO 00000KT 10SM CLR M09/M12 A3041 RMK AO2 SLP351 T10941117 11061
 21100 56004 FZRANO=
KFCS 151158Z AUTO 32008KT 10SM CLR 01/M08 A3013 RMK AO2 SLP223 T00071085 10036
 21004 57004 $=
KFNL 151156Z AUTO 00000KT 10SM CLR M01/M04 A3010 RMK AO2 SLP188 6//// 7////
 T10111039 10033 21039 56004 FZRANO PNO $=
KFTG 151154Z AUTO 21011KT 10SM CLR 07/M08 A3012 RMK AO2 T00671077=
KGJT 151153Z AUTO 12009KT 10SM CLR M02/M09 A3033 RMK AO2 SLP276 T10221089 11006
 21039 58008=
KGUC 151156Z AUTO 00000KT 10SM CLR M13/M16 A3042 RMK AO2 SLP360 T11331156 11089
 21139 55002 FZRANO=
KGXY 151156Z AUTO 34003KT 10SM CLR M07/M08 A3011 RMK AO2 SLP225 T10671083 11022
 21078 55003 FZRANO=
KHDN 151156Z AUTO 11011KT 10SM CLR M04/M08 A3034 RMK AO2 SLP297 T10441083 11011
 21050 58006 FZRANO=
KITR 151153Z AUTO 27010KT 10SM CLR 00/M04 A3007 RMK AO2 SLP186 T00001044 10022
 21011 56006=
KLAA 151153Z AUTO 25008KT 10SM CLR M04/M06 A3008 RMK AO2 SLP196 T10391056 10000
 21044 56008=
KLHX 151153Z AUTO 26009KT 10SM CLR M01/M04 A3011 RMK AO2 SLP196 T10111039 10033
 21022 56007=
KLIC 151155Z AUTO 34006KT 10SM CLR 00/M06 A3013 RMK AO2 SLP197 T00001061 10022
 21033 56006=
KLXV 151153Z AUTO 05007KT 10SM CLR M08/M13 A3034 RMK AO2 SLP245 T10781133 11067
 21089 56007=
KMTJ 151153Z AUTO 18007KT 10SM CLR M06/M10 A3038 RMK AO2 SLP290 T10611100 11022
 21061 56004=
KPUB 151153Z AUTO 35003KT 10SM CLR M03/M06 A3012 RMK AO2 SLP199 T10331061 10000
 21039 56006=
KRIL 151153Z AUTO 00000KT 10SM CLR M06/M09 A3037 RMK AO2 SLP302 T10611094 11028
 21067 58005=
KSBS 151155Z AUTO 00000KT 10SM CLR M08/M09 A3034 RMK AO1 T10811090=
KSPD 151156Z AUTO 30012KT 02/M04 A3007 RMK AO1 SLP178 T00221044 10022 21022
 56010 $=
KTAD 151154Z AUTO 26014KT 10SM CLR 01/M07 A3015 RMK AO2 SLP201 T00061072 10033
 21011 58005=
KTEX 151155Z AUTO 14005KT 10SM CLR M02/M11 A3037 RMK AO2=